createdAt,value
2022-12-15T17:01:45.997Z,186.00
2022-12-15T17:03:18.977Z,186.25
2022-12-15T17:04:50.805Z,183.00
2022-12-15T17:06:22.736Z,190.00
2022-12-15T17:07:56.074Z,176.00
2022-12-15T17:09:27.720Z,158.00
2022-12-15T17:10:59.405Z,163.25
2022-12-15T17:12:31.158Z,164.50
2022-12-15T17:14:03.532Z,157.50
2022-12-15T17:15:36.706Z,141.50
2022-12-15T17:17:14.223Z,131.00
2022-12-15T17:18:45.993Z,142.75
2022-12-15T17:20:30.671Z,156.00
2022-12-15T17:22:03.058Z,159.75
2022-12-15T17:23:35.355Z,143.25
2022-12-15T17:25:13.481Z,137.00
2022-12-15T17:26:45.304Z,127.00
2022-12-15T17:28:24.371Z,121.75
2022-12-15T17:29:56.430Z,118.25
2022-12-15T17:31:34.793Z,149.25
2022-12-15T17:33:27.336Z,158.00
2022-12-15T17:34:59.131Z,140.75
2022-12-15T17:36:30.853Z,147.00
2022-12-15T17:38:02.781Z,152.50
2022-12-15T17:39:35.764Z,143.00
2022-12-15T17:41:28.755Z,151.50
2022-12-15T17:43:03.284Z,172.25
2022-12-15T17:44:37.320Z,167.75
2022-12-15T17:46:10.461Z,157.75
2022-12-15T17:47:42.241Z,153.75
2022-12-15T17:49:13.941Z,163.75
2022-12-15T17:50:50.063Z,176.25
2022-12-15T17:52:29.355Z,179.75
2022-12-15T17:54:01.076Z,187.75
2022-12-15T17:55:35.385Z,178.25
2022-12-15T17:57:09.524Z,184.75
2022-12-15T17:58:41.356Z,180.50
2022-12-15T18:00:21.350Z,180.00
2022-12-15T18:01:56.929Z,195.75
2022-12-15T18:03:29.613Z,184.00
2022-12-15T18:05:01.759Z,196.00
2022-12-15T18:06:33.509Z,175.00
2022-12-15T18:08:19.237Z,193.50
2022-12-15T18:09:51.402Z,183.25
2022-12-15T18:11:23.332Z,176.25
2022-12-15T18:12:55.437Z,192.75
2022-12-15T18:14:27.529Z,169.75
2022-12-15T18:16:00.118Z,182.00
2022-12-15T18:17:31.869Z,200.50
2022-12-15T18:19:03.487Z,205.33
2022-12-15T18:20:35.210Z,222.33
2022-12-15T18:22:21.237Z,210.33
2022-12-15T18:23:53.189Z,206.67
2022-12-15T18:25:26.597Z,217.00
2022-12-15T18:26:58.584Z,207.67
2022-12-15T18:28:32.397Z,207.00
2022-12-15T18:30:04.430Z,229.33
2022-12-15T18:31:36.281Z,220.67
2022-12-15T18:33:08.608Z,212.33
2022-12-15T18:34:40.295Z,216.00
2022-12-15T18:36:12.400Z,216.67
2022-12-15T18:37:44.250Z,192.33
2022-12-15T18:39:26.298Z,192.67
2022-12-15T18:40:59.355Z,208.67
2022-12-15T18:42:31.114Z,208.00
2022-12-15T18:44:02.808Z,214.67
2022-12-15T18:45:34.582Z,208.00
2022-12-15T18:47:06.571Z,226.33
2022-12-15T18:48:40.217Z,219.33
2022-12-15T18:50:22.486Z,202.33
2022-12-15T18:51:54.208Z,211.67
2022-12-15T18:53:33.906Z,218.67
2022-12-15T18:55:14.481Z,213.00
2022-12-15T18:56:46.550Z,237.33
2022-12-15T18:58:21.248Z,228.67
2022-12-15T18:59:57.837Z,226.33
2022-12-15T19:01:29.643Z,241.00
2022-12-15T19:03:01.763Z,242.33
2022-12-15T19:04:33.579Z,212.00
2022-12-15T19:06:10.952Z,216.00
2022-12-15T19:07:42.625Z,231.67
2022-12-15T19:09:18.436Z,239.00
2022-12-15T19:10:58.032Z,228.00
2022-12-15T19:12:29.826Z,232.67
2022-12-15T19:14:02.318Z,237.00
2022-12-15T19:15:34.116Z,228.33
2022-12-15T19:17:46.410Z,229.67
2022-12-15T19:19:36.703Z,225.00
2022-12-15T19:21:33.809Z,272.75
2022-12-15T19:23:05.788Z,245.00
2022-12-15T19:24:55.921Z,203.67
2022-12-15T19:26:27.716Z,224.33
2022-12-15T19:28:00.258Z,218.33
2022-12-15T19:29:32.570Z,235.00
2022-12-15T19:31:04.696Z,211.67
2022-12-15T19:32:36.815Z,226.33
2022-12-15T19:34:08.777Z,216.67
2022-12-15T19:35:42.370Z,221.00
2022-12-15T19:37:21.849Z,209.67
2022-12-15T19:38:56.976Z,204.67
2022-12-15T19:40:31.399Z,182.67
2022-12-15T19:42:10.099Z,174.50
2022-12-15T19:43:45.093Z,174.50
2022-12-15T19:45:18.667Z,194.00
2022-12-15T19:46:50.563Z,189.25
2022-12-15T19:48:24.150Z,186.00
2022-12-15T19:49:56.576Z,197.00
2022-12-15T19:51:29.009Z,188.25
2022-12-15T19:53:01.883Z,179.00
2022-12-15T19:54:33.796Z,168.75
2022-12-15T19:56:06.542Z,177.50
2022-12-15T19:57:38.705Z,167.25
2022-12-15T19:59:39.669Z,155.00
2022-12-15T20:01:14.748Z,155.50
2022-12-15T20:02:48.099Z,158.50
2022-12-15T20:04:24.011Z,146.25
2022-12-15T20:05:56.982Z,149.00
2022-12-15T20:07:30.776Z,159.50
2022-12-15T20:09:02.908Z,162.50
2022-12-15T20:10:34.912Z,168.25
2022-12-15T20:12:09.344Z,160.50
2022-12-15T20:13:41.494Z,162.75
2022-12-15T20:15:15.767Z,168.75
2022-12-15T20:16:47.931Z,169.00
2022-12-15T20:18:19.880Z,177.00
2022-12-15T20:19:54.249Z,156.75
2022-12-15T20:21:29.620Z,160.75
2022-12-15T20:23:05.030Z,160.00
2022-12-15T20:24:37.420Z,163.75
2022-12-15T20:26:10.859Z,147.25
2022-12-15T20:27:42.935Z,159.75
2022-12-15T20:29:28.860Z,146.00
2022-12-15T20:31:01.156Z,151.00
2022-12-15T20:32:38.186Z,141.25
2022-12-15T20:34:10.401Z,166.25
2022-12-15T20:35:43.115Z,164.50
2022-12-15T20:37:32.990Z,171.00
2022-12-15T20:39:08.743Z,171.75
2022-12-15T20:40:40.707Z,159.50
2022-12-15T20:42:15.663Z,154.25
2022-12-15T20:43:47.872Z,173.75
2022-12-15T20:45:25.252Z,173.75
2022-12-15T20:46:56.844Z,182.75
2022-12-15T20:48:28.467Z,154.50
2022-12-15T20:50:00.176Z,171.75
2022-12-15T20:51:32.739Z,163.25
2022-12-15T20:53:04.626Z,159.50
2022-12-15T20:54:36.278Z,151.50
2022-12-15T20:56:08.310Z,152.00
2022-12-15T20:57:39.965Z,163.00
2022-12-15T20:59:12.948Z,161.50
2022-12-15T21:00:45.342Z,139.75
2022-12-15T21:02:18.681Z,146.25
2022-12-15T21:03:52.019Z,164.50
2022-12-15T21:05:24.650Z,157.75
2022-12-15T21:06:56.696Z,152.00
2022-12-15T21:08:30.099Z,161.50
2022-12-15T21:10:01.959Z,156.25
2022-12-15T21:11:33.696Z,158.25
2022-12-15T21:13:05.893Z,170.75
2022-12-15T21:14:37.570Z,164.75
2022-12-15T21:16:15.566Z,158.00
2022-12-15T21:17:57.931Z,168.25
2022-12-15T21:19:39.925Z,153.50
2022-12-15T21:21:34.201Z,160.00
2022-12-15T21:23:06.071Z,158.00
2022-12-15T21:24:38.054Z,130.25
2022-12-15T21:26:09.933Z,151.25
2022-12-15T21:27:41.684Z,151.50
2022-12-15T21:29:20.697Z,137.50
2022-12-15T21:30:52.549Z,133.75
2022-12-15T21:32:24.257Z,143.25
2022-12-15T21:33:56.428Z,141.25
2022-12-15T21:35:31.792Z,138.25
2022-12-15T21:37:03.877Z,128.75
2022-12-15T21:38:39.805Z,132.50
2022-12-15T21:40:22.204Z,120.75
2022-12-15T21:43:46.266Z,112.75
2022-12-15T21:45:19.950Z,116.00
2022-12-15T21:46:51.768Z,120.00
2022-12-15T21:48:41.817Z,119.00
2022-12-15T21:50:14.562Z,119.40
2022-12-15T21:51:57.928Z,120.00
2022-12-15T21:53:29.597Z,95.40
2022-12-15T21:55:01.308Z,103.40
2022-12-15T21:56:32.988Z,105.20
2022-12-15T21:58:17.577Z,102.60
2022-12-15T21:59:51.680Z,96.40
2022-12-15T22:01:24.579Z,110.75
2022-12-15T22:02:56.493Z,94.25
2022-12-15T22:04:35.040Z,113.00
2022-12-15T22:06:08.642Z,96.50
2022-12-15T22:07:40.356Z,90.25
2022-12-15T22:09:12.179Z,96.25
2022-12-15T22:10:45.763Z,85.75
2022-12-15T22:12:21.838Z,110.40
2022-12-15T22:13:55.127Z,112.80
2022-12-15T22:15:26.961Z,108.25
2022-12-15T22:16:58.848Z,115.00
2022-12-15T22:18:30.873Z,124.75
2022-12-15T22:20:13.057Z,130.25
2022-12-15T22:21:44.789Z,129.50
2022-12-15T22:23:17.640Z,131.50
2022-12-15T22:24:49.455Z,129.75
2022-12-15T22:26:22.829Z,158.00
2022-12-15T22:27:54.911Z,152.50
2022-12-15T22:29:27.830Z,157.00
2022-12-15T22:30:59.629Z,155.00
2022-12-15T22:32:32.486Z,156.50
2022-12-15T22:34:17.077Z,151.75
2022-12-15T22:35:49.921Z,149.25
2022-12-15T22:37:21.601Z,129.00
2022-12-15T22:38:53.952Z,140.75
2022-12-15T22:40:26.677Z,154.75
2022-12-15T22:41:58.367Z,156.25
2022-12-15T22:43:36.919Z,153.25
2022-12-15T22:45:16.718Z,152.50
2022-12-15T22:46:49.360Z,150.50
2022-12-15T22:48:23.848Z,135.50
2022-12-15T22:49:55.539Z,147.25
2022-12-15T22:51:27.195Z,128.75
2022-12-15T22:52:58.814Z,141.75
2022-12-15T22:54:31.907Z,146.50
2022-12-15T22:56:06.102Z,139.25
2022-12-15T22:57:38.460Z,149.00
2022-12-15T22:59:12.613Z,161.50
2022-12-15T23:00:44.382Z,155.50
2022-12-15T23:02:17.041Z,146.00
2022-12-15T23:03:48.808Z,163.50
2022-12-15T23:05:20.540Z,167.50
2022-12-15T23:06:52.279Z,163.50
2022-12-15T23:08:23.926Z,159.25
2022-12-15T23:10:15.555Z,170.75
2022-12-15T23:11:47.281Z,153.75
2022-12-15T23:13:18.951Z,154.00
2022-12-15T23:15:09.270Z,158.50
2022-12-15T23:16:41.388Z,152.00
2022-12-15T23:18:13.594Z,175.75
2022-12-15T23:19:45.543Z,159.75
2022-12-15T23:21:17.371Z,149.75
2022-12-15T23:22:48.983Z,128.75
2022-12-15T23:24:20.635Z,149.50
2022-12-15T23:25:53.102Z,150.50
2022-12-15T23:27:25.446Z,147.75
2022-12-15T23:28:57.044Z,145.75
2022-12-15T23:30:28.700Z,139.50
2022-12-15T23:32:00.385Z,124.50
2022-12-15T23:33:32.502Z,113.75
